^^
Meteo Knjazevac Station Historical Data
Daily Summary for August 5, 2022 Units:  Both    English   Metric
Daily Weekly Monthly Yearly Custom
  High: Low: Average:
Temperature: 50.5 °F /  10.3 °C 44.8 °F /  7.1 °C 46.8 °F /  8.2 °C
Dew Point: 48.9 °F /  9.4 °C 44.2 °F /  6.8 °C 46 °F /  7.8 °C
Humidity: 99% 94% 97%
Wind Speed: 3.8mph /  6.1km/h - 1.4mph /  2.3km/h
Wind Gust: 5mph /  8km/h - -
Wind- - SW
Pressure: 29.94 in /  1013.8 hPa 29.91 in /  1012.8 hPa -
Precipitation: 0.00 in /  0 mm    
Historical Graphs
 
 
Tabular Data for August 5, 2022
Time Temperature Dew Point Pressure Wind Wind Speed Wind Gust Humidity Rainfall Rate (Hourly) solar Conditions
00:04 48.9 °F /  9.4 °C 47.3 °F /  8.5 °C 29.93in /  1013.4hPa Calm   1mph /  1.6km/h 94% 0.00in /  0mm 0 W/m2
00:09 48.9 °F /  9.4 °C 47.3 °F /  8.5 °C 29.93in /  1013.4hPa North 0.4mph /  0.6km/h 0.7mph /  1.1km/h 94% 0.00in /  0mm 0 W/m2
00:14 48.9 °F /  9.4 °C 47.3 °F /  8.5 °C 29.93in /  1013.4hPa NNW 0.6mph /  1km/h 1mph /  1.6km/h 94% 0.00in /  0mm 0 W/m2
00:19 48.7 °F /  9.3 °C 47.1 °F /  8.4 °C 29.93in /  1013.4hPa Calm   1mph /  1.6km/h 94% 0.00in /  0mm 0 W/m2
00:24 48.7 °F /  9.3 °C 47.1 °F /  8.4 °C 29.93in /  1013.4hPa WSW 0.7mph /  1.1km/h 0.4mph /  0.6km/h 94% 0.00in /  0mm 0 W/m2
00:29 48.7 °F /  9.3 °C 47 °F /  8.3 °C 29.93in /  1013.4hPa WNW 0.8mph /  1.3km/h 1mph /  1.6km/h 94% 0.00in /  0mm 0 W/m2
00:34 48.6 °F /  9.2 °C 47.2 °F /  8.4 °C 29.93in /  1013.4hPa North 1.9mph /  3.1km/h 2mph /  3.2km/h 94.6% 0.00in /  0mm 0 W/m2
00:39 48.6 °F /  9.2 °C 47.3 °F /  8.5 °C 29.93in /  1013.4hPa North 0.3mph /  0.5km/h 2mph /  3.2km/h 95% 0.00in /  0mm 0 W/m2
00:44 48.6 °F /  9.2 °C 47.2 °F /  8.4 °C 29.93in /  1013.4hPa Calm     95% 0.00in /  0mm 0 W/m2
00:49 48.6 °F /  9.2 °C 47.2 °F /  8.4 °C 29.93in /  1013.4hPa North 1.3mph /  2.1km/h 2mph /  3.2km/h 95% 0.00in /  0mm 0 W/m2
00:54 48.5 °F /  9.2 °C 47.1 °F /  8.4 °C 29.93in /  1013.4hPa NNE 2.3mph /  3.7km/h 2mph /  3.2km/h 95% 0.00in /  0mm 0 W/m2
00:59 48.4 °F /  9.1 °C 47 °F /  8.3 °C 29.93in /  1013.4hPa NNE 1.3mph /  2.1km/h 2mph /  3.2km/h 95% 0.00in /  0mm 0 W/m2
01:04 48.4 °F /  9.1 °C 47 °F /  8.3 °C 29.93in /  1013.4hPa North 0.8mph /  1.3km/h 1mph /  1.6km/h 95% 0.00in /  0mm 0 W/m2
01:09 48.2 °F /  9 °C 46.8 °F /  8.2 °C 29.94in /  1013.8hPa West 1.4mph /  2.3km/h 1.6mph /  2.6km/h 95% 0.00in /  0mm 0 W/m2
01:14 48 °F /  8.9 °C 46.7 °F /  8.2 °C 29.94in /  1013.8hPa West 1.9mph /  3.1km/h 2mph /  3.2km/h 95% 0.00in /  0mm 0 W/m2
01:19 47.8 °F /  8.8 °C 46.5 °F /  8.1 °C 29.94in /  1013.8hPa WNW 2.2mph /  3.5km/h 2mph /  3.2km/h 95% 0.00in /  0mm 0 W/m2
01:24 47.7 °F /  8.7 °C 46.4 °F /  8 °C 29.94in /  1013.8hPa NW 2.1mph /  3.4km/h 2mph /  3.2km/h 95% 0.00in /  0mm 0 W/m2
01:29 47.7 °F /  8.7 °C 46.3 °F /  7.9 °C 29.94in /  1013.8hPa NNW 1.2mph /  1.9km/h 2mph /  3.2km/h 95% 0.00in /  0mm 0 W/m2
01:34 47.6 °F /  8.7 °C 46.2 °F /  7.9 °C 29.94in /  1013.8hPa NW 2.1mph /  3.4km/h 2mph /  3.2km/h 95% 0.00in /  0mm 0 W/m2
01:39 47.5 °F /  8.6 °C 46.2 °F /  7.9 °C 29.94in /  1013.8hPa WNW 1.9mph /  3.1km/h 2mph /  3.2km/h 95.5% 0.00in /  0mm 0 W/m2
01:44 47.5 °F /  8.6 °C 46.4 °F /  8 °C 29.94in /  1013.8hPa WNW 0.1mph /  0.2km/h 2mph /  3.2km/h 96% 0.00in /  0mm 0 W/m2
01:49 47.5 °F /  8.6 °C 46.4 °F /  8 °C 29.94in /  1013.8hPa Calm     96% 0.00in /  0mm 0 W/m2
01:54 47.5 °F /  8.6 °C 46.4 °F /  8 °C 29.94in /  1013.8hPa NW 0.3mph /  0.5km/h 0.4mph /  0.6km/h 96% 0.00in /  0mm 0 W/m2
01:59 47.3 °F /  8.5 °C 46.2 °F /  7.9 °C 29.93in /  1013.4hPa NNW 1.8mph /  2.9km/h 2mph /  3.2km/h 96% 0.00in /  0mm 0 W/m2
02:04 47.3 °F /  8.5 °C 46.2 °F /  7.9 °C 29.93in /  1013.4hPa NNE 1.8mph /  2.9km/h 2mph /  3.2km/h 96% 0.00in /  0mm 0 W/m2
02:09 47.2 °F /  8.4 °C 46.1 °F /  7.8 °C 29.93in /  1013.4hPa NE 2.3mph /  3.7km/h 2.5mph /  4km/h 96% 0.00in /  0mm 0 W/m2
02:14 47.1 °F /  8.4 °C 46 °F /  7.8 °C 29.93in /  1013.4hPa NE 2.4mph /  3.9km/h 3mph /  4.8km/h 96% 0.00in /  0mm 0 W/m2
02:19 47.1 °F /  8.4 °C 46 °F /  7.8 °C 29.93in /  1013.4hPa NE 0.7mph /  1.1km/h 3mph /  4.8km/h 96% 0.00in /  0mm 0 W/m2
02:24 47 °F /  8.3 °C 45.9 °F /  7.7 °C 29.92in /  1013.1hPa NE 1.8mph /  2.9km/h 1.1mph /  1.8km/h 96% 0.00in /  0mm 0 W/m2
02:29 46.9 °F /  8.3 °C 45.8 °F /  7.7 °C 29.92in /  1013.1hPa ENE 0.2mph /  0.3km/h 2mph /  3.2km/h 96% 0.00in /  0mm 0 W/m2
02:34 46.8 °F /  8.2 °C 45.7 °F /  7.6 °C 29.92in /  1013.1hPa North 0.5mph /  0.8km/h 0.2mph /  0.3km/h 96% 0.00in /  0mm 0 W/m2
02:39 46.7 °F /  8.2 °C 45.6 °F /  7.6 °C 29.91in /  1012.8hPa North 1.9mph /  3.1km/h 1.6mph /  2.6km/h 96% 0.00in /  0mm 0 W/m2
02:44 46.6 °F /  8.1 °C 45.5 °F /  7.5 °C 29.91in /  1012.8hPa NW 1.8mph /  2.9km/h 2mph /  3.2km/h 96% 0.00in /  0mm 0 W/m2
02:49 46.5 °F /  8.1 °C 45.4 °F /  7.4 °C 29.91in /  1012.8hPa West 1.4mph /  2.3km/h 2mph /  3.2km/h 96% 0.00in /  0mm 0 W/m2
02:54 46.4 °F /  8 °C 45.3 °F /  7.4 °C 29.91in /  1012.8hPa West 2.2mph /  3.5km/h 2mph /  3.2km/h 96% 0.00in /  0mm 0 W/m2
02:59 46.2 °F /  7.9 °C 45.1 °F /  7.3 °C 29.91in /  1012.8hPa WNW 1.1mph /  1.8km/h 2mph /  3.2km/h 96% 0.00in /  0mm 0 W/m2
03:04 46.2 °F /  7.9 °C 45.1 °F /  7.3 °C 29.91in /  1012.8hPa WNW 1.1mph /  1.8km/h 1mph /  1.6km/h 96% 0.00in /  0mm 0 W/m2
03:09 46 °F /  7.8 °C 45 °F /  7.2 °C 29.91in /  1012.8hPa NW 0.5mph /  0.8km/h 1mph /  1.6km/h 96% 0.00in /  0mm 0 W/m2
03:14 45.9 °F /  7.7 °C 44.8 °F /  7.1 °C 29.91in /  1012.8hPa Calm   1mph /  1.6km/h 96% 0.00in /  0mm 0 W/m2
03:19 45.8 °F /  7.7 °C 44.7 °F /  7.1 °C 29.91in /  1012.8hPa WNW 0.5mph /  0.8km/h   96% 0.00in /  0mm 0 W/m2
03:24 45.5 °F /  7.5 °C 44.4 °F /  6.9 °C 29.91in /  1012.8hPa WNW 1.7mph /  2.7km/h 1.6mph /  2.6km/h 96% 0.00in /  0mm 0 W/m2
03:29 45.4 °F /  7.4 °C 44.3 °F /  6.8 °C 29.91in /  1012.8hPa NNW 1.2mph /  1.9km/h 2mph /  3.2km/h 96% 0.00in /  0mm 0 W/m2
03:34 45.2 °F /  7.3 °C 44.2 °F /  6.8 °C 29.91in /  1012.8hPa ESE 0.2mph /  0.3km/h 2mph /  3.2km/h 96% 0.00in /  0mm 0 W/m2
03:39 45.1 °F /  7.3 °C 44.2 °F /  6.8 °C 29.91in /  1012.8hPa South 1.2mph /  1.9km/h 1mph /  1.6km/h 96.5% 0.00in /  0mm 0 W/m2
03:44 45 °F /  7.2 °C 44.5 °F /  6.9 °C 29.91in /  1012.8hPa West 1.7mph /  2.7km/h 2mph /  3.2km/h 98% 0.00in /  0mm 0 W/m2
03:49 45 °F /  7.2 °C 44.4 °F /  6.9 °C 29.91in /  1012.8hPa WNW 1.5mph /  2.4km/h 3mph /  4.8km/h 98% 0.00in /  0mm 0 W/m2
03:54 45 °F /  7.2 °C 44.4 °F /  6.9 °C 29.91in /  1012.8hPa NW 0.7mph /  1.1km/h 2mph /  3.2km/h 98% 0.00in /  0mm 0 W/m2
03:59 45 °F /  7.2 °C 44.6 °F /  7 °C 29.91in /  1012.8hPa NNW 1.8mph /  2.9km/h 2mph /  3.2km/h 98.6% 0.00in /  0mm 0 W/m2
04:04 45 °F /  7.2 °C 44.7 °F /  7.1 °C 29.91in /  1012.8hPa North 1.8mph /  2.9km/h 2mph /  3.2km/h 99% 0.00in /  0mm 0 W/m2
04:09 45 °F /  7.2 °C 44.7 °F /  7.1 °C 29.92in /  1013.1hPa North 0.7mph /  1.1km/h 2mph /  3.2km/h 99% 0.00in /  0mm 0 W/m2
04:14 45.1 °F /  7.3 °C 44.8 °F /  7.1 °C 29.92in /  1013.1hPa North 0.7mph /  1.1km/h 2mph /  3.2km/h 99% 0.00in /  0mm 0 W/m2
04:19 45 °F /  7.2 °C 44.8 °F /  7.1 °C 29.92in /  1013.1hPa NNW 1.4mph /  2.3km/h 2mph /  3.2km/h 99% 0.00in /  0mm 0 W/m2
04:24 45 °F /  7.2 °C 44.7 °F /  7.1 °C 29.92in /  1013.1hPa NNW 0.7mph /  1.1km/h 2mph /  3.2km/h 99% 0.00in /  0mm 0 W/m2
04:29 45 °F /  7.2 °C 44.8 °F /  7.1 °C 29.92in /  1013.1hPa Calm   1mph /  1.6km/h 99% 0.00in /  0mm 0 W/m2
04:34 45.1 °F /  7.3 °C 44.9 °F /  7.2 °C 29.92in /  1013.1hPa North 0.3mph /  0.5km/h   99% 0.00in /  0mm 0 W/m2
04:39 45.1 °F /  7.3 °C 44.9 °F /  7.2 °C 29.92in /  1013.1hPa North 0.9mph /  1.4km/h 2mph /  3.2km/h 99% 0.00in /  0mm 0 W/m2
04:44 45.2 °F /  7.3 °C 45 °F /  7.2 °C 29.92in /  1013.1hPa North 1mph /  1.6km/h 2mph /  3.2km/h 99% 0.00in /  0mm 0 W/m2
04:49 45.3 °F /  7.4 °C 45.1 °F /  7.3 °C 29.92in /  1013.1hPa North 1.6mph /  2.6km/h 2mph /  3.2km/h 99% 0.00in /  0mm 0 W/m2
04:54 45.3 °F /  7.4 °C 45.1 °F /  7.3 °C 29.93in /  1013.4hPa NNW 2mph /  3.2km/h 2mph /  3.2km/h 99% 0.00in /  0mm 0 W/m2
04:59 45.2 °F /  7.3 °C 44.7 °F /  7.1 °C 29.93in /  1013.4hPa WNW 1.1mph /  1.8km/h 2mph /  3.2km/h 98.2% 0.00in /  0mm 0 W/m2
05:04 45.1 °F /  7.3 °C 44.6 °F /  7 °C 29.93in /  1013.4hPa WNW 1.8mph /  2.9km/h 1.3mph /  2.1km/h 98% 0.00in /  0mm 0 W/m2
05:09 45 °F /  7.2 °C 44.5 °F /  6.9 °C 29.93in /  1013.4hPa NW 1.6mph /  2.6km/h 2mph /  3.2km/h 98% 0.00in /  0mm 0 W/m2
05:14 45 °F /  7.2 °C 44.4 °F /  6.9 °C 29.93in /  1013.4hPa NW 1.2mph /  1.9km/h 2mph /  3.2km/h 98% 0.00in /  0mm 0 W/m2
05:19 45 °F /  7.2 °C 44.4 °F /  6.9 °C 29.93in /  1013.4hPa NNW 1.1mph /  1.8km/h 2mph /  3.2km/h 98% 0.00in /  0mm 0 W/m2
05:24 45 °F /  7.2 °C 44.4 °F /  6.9 °C 29.93in /  1013.4hPa NW 1.7mph /  2.7km/h 1.6mph /  2.6km/h 98% 0.00in /  0mm 0 W/m2
05:29 44.9 °F /  7.2 °C 44.3 °F /  6.8 °C 29.93in /  1013.4hPa WNW 1.3mph /  2.1km/h 2mph /  3.2km/h 98% 0.00in /  0mm 0 W/m2
05:34 44.8 °F /  7.1 °C 44.4 °F /  6.9 °C 29.93in /  1013.4hPa Calm   2mph /  3.2km/h 98.3% 0.00in /  0mm 0 W/m2
05:39 45 °F /  7.2 °C 44.7 °F /  7.1 °C 29.93in /  1013.4hPa NW 0.9mph /  1.4km/h 1.6mph /  2.6km/h 99% 0.00in /  0mm 0 W/m2
05:44 45.1 °F /  7.3 °C 44.8 °F /  7.1 °C 29.93in /  1013.4hPa NNW 3.6mph /  5.8km/h 3mph /  4.8km/h 99% 0.00in /  0mm 0 W/m2
05:49 45.3 °F /  7.4 °C 45.1 °F /  7.3 °C 29.93in /  1013.4hPa North 3.5mph /  5.6km/h 5mph /  8km/h 99% 0.00in /  0mm 0 W/m2
05:54 45.4 °F /  7.4 °C 45.2 °F /  7.3 °C 29.93in /  1013.4hPa NNW 1.8mph /  2.9km/h 4mph /  6.4km/h 99% 0.00in /  0mm 0 W/m2
05:59 45.3 °F /  7.4 °C 45.1 °F /  7.3 °C 29.93in /  1013.4hPa NW 2.2mph /  3.5km/h 2mph /  3.2km/h 99% 0.00in /  0mm 0 W/m2
06:04 45.2 °F /  7.3 °C 44.9 °F /  7.2 °C 29.93in /  1013.4hPa WNW 2.2mph /  3.5km/h 2mph /  3.2km/h 98.7% 0.00in /  0mm 0 W/m2
06:09 45.2 °F /  7.3 °C 45 °F /  7.2 °C 29.93in /  1013.4hPa WNW 0.9mph /  1.4km/h 2mph /  3.2km/h 99% 0.00in /  0mm 0 W/m2
06:14 45.3 °F /  7.4 °C 45.1 °F /  7.3 °C 29.93in /  1013.4hPa North 1.8mph /  2.9km/h 1.1mph /  1.8km/h 99% 0.00in /  0mm 1 W/m2
06:19 45.3 °F /  7.4 °C 45.1 °F /  7.3 °C 29.93in /  1013.4hPa WNW 2mph /  3.2km/h 2mph /  3.2km/h 99% 0.00in /  0mm 2 W/m2
06:24 45.3 °F /  7.4 °C 45.1 °F /  7.3 °C 29.94in /  1013.8hPa WSW 2.3mph /  3.7km/h 2mph /  3.2km/h 99% 0.00in /  0mm 3 W/m2
06:29 45.1 °F /  7.3 °C 44.9 °F /  7.2 °C 29.94in /  1013.8hPa WSW 3.1mph /  5km/h 3mph /  4.8km/h 99% 0.00in /  0mm 5 W/m2
06:34 45.1 °F /  7.3 °C 44.9 °F /  7.2 °C 29.94in /  1013.8hPa West 2.8mph /  4.5km/h 3mph /  4.8km/h 99% 0.00in /  0mm 8 W/m2
06:39 45.2 °F /  7.3 °C 45 °F /  7.2 °C 29.94in /  1013.8hPa NW 3mph /  4.8km/h 3mph /  4.8km/h 99% 0.00in /  0mm 12 W/m2
06:44 45.4 °F /  7.4 °C 45.2 °F /  7.3 °C 29.93in /  1013.4hPa WNW 0.7mph /  1.1km/h 3mph /  4.8km/h 99% 0.00in /  0mm 15 W/m2
06:49 45.5 °F /  7.5 °C 45.2 °F /  7.3 °C 29.93in /  1013.4hPa WNW 1.6mph /  2.6km/h 2mph /  3.2km/h 99% 0.00in /  0mm 19 W/m2
06:54 45.7 °F /  7.6 °C 45.4 °F /  7.4 °C 29.93in /  1013.4hPa WNW 1.8mph /  2.9km/h 2mph /  3.2km/h 99% 0.00in /  0mm 24 W/m2
06:59 45.9 °F /  7.7 °C 45.6 °F /  7.6 °C 29.93in /  1013.4hPa Calm   2mph /  3.2km/h 99% 0.00in /  0mm 31 W/m2
07:04 46 °F /  7.8 °C 45.7 °F /  7.6 °C 29.93in /  1013.4hPa ENE 0.4mph /  0.6km/h 0.2mph /  0.3km/h 99% 0.00in /  0mm 36 W/m2
07:09 46 °F /  7.8 °C 45.8 °F /  7.7 °C 29.93in /  1013.4hPa NE 1mph /  1.6km/h 1mph /  1.6km/h 99% 0.00in /  0mm 40 W/m2
07:14 46 °F /  7.8 °C 45.8 °F /  7.7 °C 29.94in /  1013.8hPa North 1.3mph /  2.1km/h 2mph /  3.2km/h 99% 0.00in /  0mm 43 W/m2
07:19 46 °F /  7.8 °C 45.8 °F /  7.7 °C 29.93in /  1013.4hPa Calm   2mph /  3.2km/h 99% 0.00in /  0mm 48 W/m2
07:24 46.1 °F /  7.8 °C 45.9 °F /  7.7 °C 29.93in /  1013.4hPa West 0.1mph /  0.2km/h   99% 0.00in /  0mm 55 W/m2
07:29 46.2 °F /  7.9 °C 46 °F /  7.8 °C 29.93in /  1013.4hPa West 1.2mph /  1.9km/h 1.3mph /  2.1km/h 99% 0.00in /  0mm 57 W/m2
07:34 46.4 °F /  8 °C 46.1 °F /  7.8 °C 29.93in /  1013.4hPa West 1.5mph /  2.4km/h 2mph /  3.2km/h 99% 0.00in /  0mm 61 W/m2
07:39 46.5 °F /  8.1 °C 46.2 °F /  7.9 °C 29.93in /  1013.4hPa WSW 0.3mph /  0.5km/h 2mph /  3.2km/h 99% 0.00in /  0mm 75 W/m2
07:44 46.7 °F /  8.2 °C 46.4 °F /  8 °C 29.93in /  1013.4hPa WSW 1.2mph /  1.9km/h 1.1mph /  1.8km/h 99% 0.00in /  0mm 84 W/m2
07:49 46.8 °F /  8.2 °C 46.5 °F /  8.1 °C 29.94in /  1013.8hPa WNW 0.5mph /  0.8km/h 2mph /  3.2km/h 99% 0.00in /  0mm 83 W/m2
07:54 47 °F /  8.3 °C 46.7 °F /  8.2 °C 29.94in /  1013.8hPa NNW 0.8mph /  1.3km/h 1.3mph /  2.1km/h 99% 0.00in /  0mm 82 W/m2
07:59 47.3 °F /  8.5 °C 47 °F /  8.3 °C 29.94in /  1013.8hPa North 3.7mph /  6km/h 4mph /  6.4km/h 99% 0.00in /  0mm 75 W/m2
08:04 47.5 °F /  8.6 °C 47 °F /  8.3 °C 29.94in /  1013.8hPa NNE 3.4mph /  5.5km/h 5mph /  8km/h 98.2% 0.00in /  0mm 70 W/m2
08:09 47.7 °F /  8.7 °C 47.1 °F /  8.4 °C 29.94in /  1013.8hPa NNE 3.7mph /  6km/h 4mph /  6.4km/h 98% 0.00in /  0mm 77 W/m2
08:14 47.8 °F /  8.8 °C 47.3 °F /  8.5 °C 29.93in /  1013.4hPa NNE 3.8mph /  6.1km/h 5mph /  8km/h 98% 0.00in /  0mm 86 W/m2
08:19 48 °F /  8.9 °C 47.5 °F /  8.6 °C 29.94in /  1013.8hPa North 3mph /  4.8km/h 4mph /  6.4km/h 98% 0.00in /  0mm 106 W/m2
08:24 48.1 °F /  8.9 °C 47.6 °F /  8.7 °C 29.94in /  1013.8hPa North 2.7mph /  4.3km/h 3mph /  4.8km/h 98% 0.00in /  0mm 120 W/m2
08:29 48.4 °F /  9.1 °C 47.6 °F /  8.7 °C 29.94in /  1013.8hPa North 1.6mph /  2.6km/h 3mph /  4.8km/h 97.2% 0.00in /  0mm 130 W/m2
08:34 48.6 °F /  9.2 °C 47.5 °F /  8.6 °C 29.94in /  1013.8hPa Calm   2mph /  3.2km/h 96% 0.00in /  0mm 129 W/m2
08:39 48.7 °F /  9.3 °C 47.7 °F /  8.7 °C 29.94in /  1013.8hPa North 1.1mph /  1.8km/h 0.9mph /  1.4km/h 96% 0.00in /  0mm 135 W/m2
08:44 48.9 °F /  9.4 °C 47.8 °F /  8.8 °C 29.94in /  1013.8hPa North 3mph /  4.8km/h 3mph /  4.8km/h 96% 0.00in /  0mm 139 W/m2
08:49 48.8 °F /  9.3 °C 47.8 °F /  8.8 °C 29.94in /  1013.8hPa NE 2.1mph /  3.4km/h 5mph /  8km/h 96% 0.00in /  0mm 143 W/m2
08:54 49 °F /  9.4 °C 47.9 °F /  8.8 °C 29.94in /  1013.8hPa NE 2.1mph /  3.4km/h 3mph /  4.8km/h 96% 0.00in /  0mm 147 W/m2
08:59 49 °F /  9.4 °C 47.9 °F /  8.8 °C 29.94in /  1013.8hPa NE 1.5mph /  2.4km/h 2mph /  3.2km/h 96% 0.00in /  0mm 147 W/m2
09:04 49.1 °F /  9.5 °C 48 °F /  8.9 °C 29.94in /  1013.8hPa NE 1.4mph /  2.3km/h 2mph /  3.2km/h 96% 0.00in /  0mm 142 W/m2
09:09 49.1 °F /  9.5 °C 48 °F /  8.9 °C 29.94in /  1013.8hPa ESE 1.4mph /  2.3km/h 2mph /  3.2km/h 96% 0.00in /  0mm 131 W/m2
09:14 49.3 °F /  9.6 °C 48 °F /  8.9 °C 29.94in /  1013.8hPa ESE 1.3mph /  2.1km/h 2mph /  3.2km/h 95.6% 0.00in /  0mm 114 W/m2
09:19 49.5 °F /  9.7 °C 48.1 °F /  8.9 °C 29.94in /  1013.8hPa SSE 1.7mph /  2.7km/h 2mph /  3.2km/h 95% 0.00in /  0mm 101 W/m2
09:24 49.6 °F /  9.8 °C 48.2 °F /  9 °C 29.94in /  1013.8hPa SSE 1.7mph /  2.7km/h 2mph /  3.2km/h 95% 0.00in /  0mm 94 W/m2
09:29 49.6 °F /  9.8 °C 48.3 °F /  9.1 °C 29.94in /  1013.8hPa SSW 1.6mph /  2.6km/h 2mph /  3.2km/h 95% 0.00in /  0mm 90 W/m2
09:34 49.8 °F /  9.9 °C 48.4 °F /  9.1 °C 29.94in /  1013.8hPa NNW 0.1mph /  0.2km/h 2mph /  3.2km/h 95% 0.00in /  0mm 97 W/m2
09:39 50 °F /  10 °C 48.6 °F /  9.2 °C 29.94in /  1013.8hPa NNW 0.2mph /  0.3km/h 1mph /  1.6km/h 94.7% 0.00in /  0mm 113 W/m2
09:44 50.3 °F /  10.2 °C 48.6 °F /  9.2 °C 29.94in /  1013.8hPa NNW 1.1mph /  1.8km/h 0.7mph /  1.1km/h 94% 0.00in /  0mm 133 W/m2
09:49 50.5 °F /  10.3 °C 48.8 °F /  9.3 °C 29.94in /  1013.8hPa NNW 1.2mph /  1.9km/h 2mph /  3.2km/h 94% 0.00in /  0mm 140 W/m2
09:50 50.5 °F /  10.3 °C 48.9 °F /  9.4 °C 29.94in /  1013.8hPa Calm   2mph /  3.2km/h 94% 0.00in /  0mm 142 W/m2
Knjazevac, Serbia
Compliments of Weather Underground - 2 mb